createdAt,value
2023-01-21T00:01:58.230Z,28.50
2023-01-21T00:04:00.373Z,20.13
2023-01-21T00:06:03.067Z,24.23
2023-01-21T00:08:05.171Z,24.20
2023-01-21T00:10:07.366Z,27.67
2023-01-21T00:12:09.462Z,28.93
2023-01-21T00:14:12.033Z,26.13
2023-01-21T00:16:14.870Z,25.30
2023-01-21T00:18:16.851Z,19.77
2023-01-21T00:20:19.310Z,20.73
2023-01-21T00:22:21.575Z,19.37
2023-01-21T00:24:24.618Z,20.10
2023-01-21T00:26:26.730Z,20.13
2023-01-21T00:28:30.538Z,23.80
2023-01-21T00:30:32.694Z,17.73
2023-01-21T00:32:34.710Z,16.47
2023-01-21T00:34:36.775Z,17.40
2023-01-21T00:36:41.894Z,17.03
2023-01-21T00:38:44.555Z,16.17
2023-01-21T00:40:46.580Z,12.27
2023-01-21T00:42:48.983Z,16.43
2023-01-21T00:44:51.106Z,12.60
2023-01-21T00:46:53.035Z,15.87
2023-01-21T00:48:56.209Z,16.57
2023-01-21T00:51:01.484Z,18.10
2023-01-21T00:53:03.566Z,13.87
2023-01-21T00:55:06.710Z,12.50
2023-01-21T00:57:09.273Z,11.27
2023-01-21T00:59:11.512Z,14.33
2023-01-21T01:01:17.173Z,14.87
2023-01-21T01:03:19.517Z,15.10
2023-01-21T01:05:22.573Z,15.83
2023-01-21T01:07:24.554Z,11.90
2023-01-21T01:09:26.697Z,14.70
2023-01-21T01:11:29.223Z,16.80
2023-01-21T01:13:33.042Z,12.47
2023-01-21T01:15:35.028Z,14.43
2023-01-21T01:17:37.030Z,17.10
2023-01-21T01:19:39.458Z,16.73
2023-01-21T01:21:41.321Z,17.77
2023-01-21T01:23:44.031Z,19.87
2023-01-21T01:26:06.277Z,15.90
2023-01-21T01:28:08.328Z,12.60
2023-01-21T01:30:11.091Z,17.60
2023-01-21T01:32:16.070Z,31.63
2023-01-21T01:34:18.672Z,28.27
2023-01-21T01:36:23.783Z,22.47
2023-01-21T01:38:25.967Z,21.10
2023-01-21T01:40:33.119Z,17.10
2023-01-21T01:42:35.121Z,17.03
2023-01-21T01:45:06.289Z,19.33
2023-01-21T01:47:08.244Z,17.57
2023-01-21T01:49:17.390Z,22.13
2023-01-21T01:51:26.480Z,26.77
2023-01-21T01:53:31.036Z,25.67
2023-01-21T01:55:35.780Z,23.33
2023-01-21T01:57:41.194Z,23.73
2023-01-21T01:59:43.807Z,28.70
2023-01-21T02:01:45.941Z,22.60
2023-01-21T02:03:56.982Z,26.97
2023-01-21T02:05:59.877Z,27.17
2023-01-21T02:08:02.307Z,21.20
2023-01-21T02:10:04.488Z,19.63
2023-01-21T02:12:07.474Z,16.73
2023-01-21T02:14:10.091Z,17.23
2023-01-21T02:16:33.519Z,16.33
2023-01-21T02:19:02.486Z,13.40
2023-01-21T02:21:25.919Z,12.00
2023-01-21T02:23:54.024Z,11.93
2023-01-21T02:26:26.910Z,11.93
2023-01-21T02:28:28.870Z,16.00
2023-01-21T02:31:02.276Z,15.77
2023-01-21T02:33:29.562Z,12.97
2023-01-21T02:35:43.428Z,14.97
2023-01-21T02:38:21.393Z,15.53
2023-01-21T02:40:29.326Z,11.87
2023-01-21T02:42:31.293Z,13.73
2023-01-21T02:44:39.221Z,12.17
2023-01-21T02:46:56.110Z,9.93
2023-01-21T02:49:11.893Z,22.00
2023-01-21T02:51:13.841Z,15.10
2023-01-21T02:53:36.613Z,29.07
2023-01-21T02:55:39.582Z,30.60
2023-01-21T02:57:56.839Z,44.13
2023-01-21T03:00:00.973Z,56.77
2023-01-21T03:02:21.067Z,60.77
2023-01-21T03:04:35.259Z,28.20
2023-01-21T03:07:02.640Z,37.57
2023-01-21T03:09:27.279Z,21.20
2023-01-21T03:11:29.808Z,16.50
2023-01-21T03:13:57.785Z,13.40
2023-01-21T03:16:18.494Z,15.27
2023-01-21T03:18:30.532Z,14.67
2023-01-21T03:20:37.866Z,15.20
2023-01-21T03:22:40.979Z,17.43
2023-01-21T03:24:46.941Z,16.60
2023-01-21T03:26:52.661Z,16.73
2023-01-21T03:29:01.095Z,14.80
2023-01-21T03:31:18.495Z,16.57
2023-01-21T03:33:22.256Z,35.37
2023-01-21T03:35:37.897Z,75.27
2023-01-21T03:38:01.183Z,125.80
2023-01-21T03:40:28.694Z,99.47
2023-01-21T03:42:31.351Z,115.23
2023-01-21T03:44:34.225Z,136.83
2023-01-21T03:47:05.488Z,184.37
2023-01-21T03:49:21.095Z,219.40
2023-01-21T03:51:33.155Z,279.93
2023-01-21T03:53:35.597Z,244.83
2023-01-21T03:55:37.692Z,345.03
2023-01-21T03:57:39.971Z,266.17
2023-01-21T03:59:42.476Z,245.47
2023-01-21T04:01:47.109Z,248.47
2023-01-21T04:03:49.779Z,193.50
2023-01-21T04:05:52.172Z,224.17
2023-01-21T04:07:54.607Z,180.47
2023-01-21T04:09:56.552Z,328.17
2023-01-21T04:12:02.799Z,186.27
2023-01-21T04:14:04.909Z,141.20
2023-01-21T04:16:07.519Z,236.73
2023-01-21T04:18:09.625Z,145.50
2023-01-21T04:20:12.392Z,125.07
2023-01-21T04:22:14.285Z,117.23
2023-01-21T04:24:16.468Z,85.27
2023-01-21T04:26:18.522Z,113.80
2023-01-21T04:28:20.681Z,98.57
2023-01-21T04:30:22.803Z,65.00
2023-01-21T04:32:24.828Z,89.93
2023-01-21T04:34:27.246Z,49.87
2023-01-21T04:36:29.383Z,46.07
2023-01-21T04:38:31.695Z,39.87
2023-01-21T04:40:33.759Z,44.57
2023-01-21T04:42:35.844Z,41.33
2023-01-21T04:44:37.792Z,69.77
2023-01-21T04:46:40.051Z,104.27
2023-01-21T04:48:42.376Z,98.43
2023-01-21T04:50:44.332Z,81.73
2023-01-21T04:52:46.310Z,85.07
2023-01-21T04:54:48.510Z,90.00
2023-01-21T04:56:50.526Z,77.03
2023-01-21T04:58:53.190Z,77.57
2023-01-21T05:00:55.734Z,52.53
2023-01-21T05:02:58.072Z,36.33
2023-01-21T05:05:00.129Z,45.43
2023-01-21T05:07:04.412Z,107.10
2023-01-21T05:09:06.434Z,134.00
2023-01-21T05:11:09.772Z,155.60
2023-01-21T05:13:11.829Z,127.20
2023-01-21T05:19:06.963Z,91.63
2023-01-21T05:21:09.134Z,61.37
2023-01-21T05:23:12.886Z,38.67
2023-01-21T05:25:16.286Z,20.90
2023-01-21T05:27:20.117Z,15.93
2023-01-21T05:29:22.531Z,16.00
2023-01-21T05:31:25.390Z,13.97
2023-01-21T05:33:34.993Z,16.20
2023-01-21T05:35:37.253Z,13.50
2023-01-21T05:37:39.285Z,10.53
2023-01-21T05:39:41.479Z,9.33
2023-01-21T05:41:43.516Z,10.60
2023-01-21T05:43:45.820Z,11.43
2023-01-21T05:45:47.842Z,12.17
2023-01-21T05:47:50.050Z,11.53
2023-01-21T05:49:51.881Z,11.20
2023-01-21T05:51:54.236Z,24.07
2023-01-21T05:53:56.333Z,24.70
2023-01-21T05:55:58.573Z,15.90
2023-01-21T05:58:01.183Z,11.90
2023-01-21T06:00:04.770Z,8.20
2023-01-21T06:02:06.802Z,6.57
2023-01-21T06:04:09.089Z,5.87
2023-01-21T06:06:11.150Z,7.13
2023-01-21T06:08:13.365Z,7.90
2023-01-21T06:10:15.845Z,6.30
2023-01-21T06:12:17.749Z,28.63
2023-01-21T06:14:19.467Z,46.80
2023-01-21T06:16:21.254Z,64.43
2023-01-21T06:18:23.970Z,46.30
2023-01-21T06:20:25.936Z,37.13
2023-01-21T06:22:27.715Z,48.97
2023-01-21T06:24:29.591Z,42.10
2023-01-21T06:26:31.301Z,37.37
2023-01-21T06:28:33.538Z,35.07
2023-01-21T06:30:35.280Z,34.10
2023-01-21T06:32:37.742Z,39.17
2023-01-21T06:34:39.625Z,34.90
2023-01-21T06:36:42.785Z,31.87
2023-01-21T06:38:44.570Z,91.57
2023-01-21T06:40:46.353Z,87.57
2023-01-21T06:42:49.466Z,80.47
2023-01-21T06:44:51.275Z,90.57
2023-01-21T06:47:00.628Z,129.27
2023-01-21T06:49:02.910Z,69.43
2023-01-21T06:51:04.876Z,60.37
2023-01-21T06:53:06.689Z,52.00
2023-01-21T06:55:09.362Z,47.20
2023-01-21T06:57:11.335Z,36.30
2023-01-21T06:59:13.454Z,31.93
2023-01-21T07:01:15.193Z,50.03
2023-01-21T07:03:16.956Z,97.07
2023-01-21T07:05:20.690Z,133.53
2023-01-21T07:07:22.704Z,111.70
2023-01-21T07:09:24.504Z,99.90
2023-01-21T07:11:26.488Z,66.07
2023-01-21T07:13:28.250Z,41.50
2023-01-21T07:15:31.095Z,31.13
2023-01-21T07:17:32.959Z,26.63
2023-01-21T07:19:34.750Z,29.03
2023-01-21T07:21:36.559Z,26.37
2023-01-21T07:23:38.412Z,23.17
2023-01-21T07:25:40.178Z,20.93
2023-01-21T07:27:42.101Z,20.03
2023-01-21T07:29:44.290Z,22.30
2023-01-21T07:31:46.145Z,24.17
2023-01-21T07:33:47.948Z,23.37
2023-01-21T07:35:50.107Z,21.00
2023-01-21T07:37:51.895Z,46.57
2023-01-21T07:39:55.937Z,43.00
2023-01-21T07:41:57.727Z,56.43
2023-01-21T07:44:01.754Z,39.80
2023-01-21T07:46:03.722Z,27.83
2023-01-21T07:48:05.999Z,20.83
2023-01-21T07:50:08.871Z,25.63
2023-01-21T07:52:10.828Z,41.03
2023-01-21T07:54:13.497Z,51.40
2023-01-21T07:56:16.331Z,61.27
2023-01-21T07:58:18.123Z,46.40
2023-01-21T08:00:20.246Z,44.43
2023-01-21T08:02:22.349Z,49.83
2023-01-21T08:04:25.474Z,43.37
2023-01-21T08:06:27.467Z,32.20
2023-01-21T08:08:29.265Z,30.37
2023-01-21T08:10:30.965Z,34.93
2023-01-21T08:12:32.825Z,40.13
2023-01-21T08:14:35.213Z,27.37
2023-01-21T08:16:37.015Z,27.63
2023-01-21T08:18:38.718Z,28.50
2023-01-21T08:20:40.467Z,22.23
2023-01-21T08:22:42.227Z,26.53
2023-01-21T08:24:44.142Z,25.13
2023-01-21T08:26:45.945Z,27.73
2023-01-21T08:28:47.715Z,39.17
2023-01-21T08:30:49.709Z,38.23
2023-01-21T08:32:51.658Z,23.10
2023-01-21T08:34:53.492Z,23.93
2023-01-21T08:36:55.574Z,29.20
2023-01-21T08:39:05.745Z,20.63
2023-01-21T08:41:07.523Z,17.40
2023-01-21T08:43:09.304Z,21.43
2023-01-21T08:45:12.350Z,26.03
2023-01-21T08:47:15.318Z,36.53
2023-01-21T08:49:17.151Z,32.63
2023-01-21T08:51:19.170Z,32.43
2023-01-21T08:53:21.666Z,32.70
2023-01-21T08:55:27.742Z,23.00
2023-01-21T08:57:29.538Z,19.97
2023-01-21T08:59:31.376Z,26.00
2023-01-21T09:01:33.701Z,40.53
2023-01-21T09:03:35.993Z,54.23
2023-01-21T09:05:37.736Z,68.60
2023-01-21T09:07:39.532Z,69.63
2023-01-21T09:09:41.336Z,70.77
2023-01-21T09:11:43.344Z,63.70
2023-01-21T09:13:45.725Z,86.77
2023-01-21T09:15:47.482Z,98.03
2023-01-21T09:17:49.317Z,54.57
2023-01-21T09:19:51.072Z,33.40
2023-01-21T09:21:54.383Z,24.53
2023-01-21T09:23:56.730Z,28.27
2023-01-21T09:26:01.323Z,26.47
2023-01-21T09:28:03.123Z,19.17
2023-01-21T09:30:05.874Z,20.00
2023-01-21T09:32:07.831Z,21.57
2023-01-21T09:34:11.782Z,18.60
2023-01-21T09:36:16.380Z,18.73
2023-01-21T09:38:18.161Z,16.30
2023-01-21T09:40:20.097Z,18.47
2023-01-21T09:42:27.861Z,20.00
2023-01-21T09:44:40.023Z,18.13
2023-01-21T09:46:44.714Z,19.43
2023-01-21T09:48:49.634Z,19.30
2023-01-21T09:50:52.538Z,14.63
2023-01-21T09:53:04.776Z,18.20
2023-01-21T09:55:17.854Z,25.63
2023-01-21T09:57:51.354Z,36.10
2023-01-21T10:00:15.598Z,31.53
2023-01-21T10:02:53.749Z,29.07
2023-01-21T10:05:18.391Z,31.77
2023-01-21T10:07:48.096Z,35.60
2023-01-21T10:10:07.859Z,50.60
2023-01-21T10:12:33.790Z,47.63
2023-01-21T10:14:48.861Z,40.77
2023-01-21T10:16:59.552Z,31.73
2023-01-21T10:19:04.055Z,35.07
2023-01-21T10:21:16.344Z,29.77
2023-01-21T10:23:33.910Z,28.10
2023-01-21T10:25:37.498Z,46.67
2023-01-21T10:27:42.551Z,51.53
2023-01-21T10:29:46.789Z,42.13
2023-01-21T10:31:59.388Z,54.80
2023-01-21T10:34:14.207Z,66.27
2023-01-21T10:36:35.481Z,57.30
2023-01-21T10:38:47.830Z,60.33
2023-01-21T10:40:59.326Z,64.40
2023-01-21T10:43:16.870Z,67.53
2023-01-21T10:45:30.895Z,57.13
2023-01-21T10:47:55.100Z,41.47
2023-01-21T10:50:03.117Z,38.50
2023-01-21T10:52:11.444Z,49.97
2023-01-21T10:54:35.313Z,31.93
2023-01-21T10:57:22.140Z,40.93
2023-01-21T10:59:28.259Z,33.30
2023-01-21T11:01:34.820Z,44.43
2023-01-21T11:03:45.899Z,39.50
2023-01-21T11:05:49.963Z,64.80
2023-01-21T11:07:52.734Z,62.30
2023-01-21T11:09:54.623Z,126.20
2023-01-21T11:11:56.672Z,119.03
2023-01-21T11:13:58.872Z,93.47
2023-01-21T11:16:02.387Z,80.57
2023-01-21T11:18:35.752Z,56.07
2023-01-21T11:20:42.471Z,34.97
2023-01-21T11:22:46.327Z,30.20
2023-01-21T11:24:50.406Z,27.00
2023-01-21T11:26:53.782Z,21.43
2023-01-21T11:29:13.191Z,19.20
2023-01-21T11:31:23.360Z,24.23
2023-01-21T11:33:27.740Z,19.13
2023-01-21T11:35:30.405Z,15.50
2023-01-21T11:37:33.511Z,12.60
2023-01-21T11:39:40.015Z,34.00
2023-01-21T11:41:51.917Z,32.80
2023-01-21T11:44:16.664Z,48.67
2023-01-21T11:46:37.304Z,36.90
2023-01-21T11:48:40.279Z,44.77
2023-01-21T11:50:42.095Z,38.60
2023-01-21T11:52:44.061Z,31.00
2023-01-21T11:54:46.718Z,32.40
2023-01-21T11:57:00.579Z,22.53
2023-01-21T11:59:11.062Z,26.60
2023-01-21T12:01:22.086Z,31.23
2023-01-21T12:03:53.357Z,32.77
2023-01-21T12:05:55.266Z,27.30
2023-01-21T12:07:58.158Z,56.67
2023-01-21T12:10:13.059Z,78.47
2023-01-21T12:12:29.023Z,111.23
2023-01-21T12:14:55.932Z,46.37
2023-01-21T12:17:16.244Z,57.70
2023-01-21T12:19:36.138Z,50.03
2023-01-21T12:21:58.984Z,65.60
2023-01-21T12:24:19.550Z,40.50
2023-01-21T12:26:33.968Z,22.97
2023-01-21T12:28:56.021Z,18.13
2023-01-21T12:31:08.264Z,16.17
2023-01-21T12:33:13.761Z,12.97
2023-01-21T12:35:28.659Z,10.60
2023-01-21T12:37:38.494Z,15.23
2023-01-21T12:39:42.981Z,17.90
2023-01-21T12:41:51.010Z,25.77
2023-01-21T12:43:58.691Z,16.83
2023-01-21T12:46:04.252Z,12.17
2023-01-21T12:48:14.833Z,11.60
2023-01-21T12:50:22.681Z,15.30
2023-01-21T12:52:50.277Z,11.10
2023-01-21T12:55:12.055Z,18.73
2023-01-21T12:57:28.264Z,24.43
2023-01-21T12:59:43.827Z,23.77
2023-01-21T13:02:05.703Z,83.07
2023-01-21T13:04:22.789Z,44.23
2023-01-21T13:07:02.758Z,34.53
2023-01-21T13:09:31.453Z,34.57
2023-01-21T13:11:39.103Z,39.07
2023-01-21T13:13:56.564Z,79.10
2023-01-21T13:16:05.384Z,45.40
2023-01-21T13:18:20.170Z,45.13
2023-01-21T13:20:23.371Z,33.07
2023-01-21T13:22:34.150Z,23.30
2023-01-21T13:28:42.568Z,15.40
2023-01-21T13:31:08.502Z,17.37
2023-01-21T13:33:22.489Z,10.97
2023-01-21T13:35:33.245Z,11.30
2023-01-21T13:38:01.863Z,11.77
2023-01-21T13:40:28.939Z,7.20
2023-01-21T13:42:46.154Z,7.63
2023-01-21T13:44:54.908Z,9.10
2023-01-21T13:47:14.861Z,10.83
2023-01-21T13:49:35.672Z,59.77
2023-01-21T13:52:05.698Z,51.30
2023-01-21T13:54:19.851Z,32.93
2023-01-21T13:56:50.608Z,23.83
2023-01-21T13:59:11.849Z,28.03
2023-01-21T14:01:22.773Z,88.97
2023-01-21T14:03:30.778Z,94.77
2023-01-21T14:05:41.200Z,61.73
2023-01-21T14:07:49.695Z,39.17
2023-01-21T14:10:12.900Z,43.77
2023-01-21T14:12:36.308Z,47.57
2023-01-21T14:15:09.536Z,42.10
2023-01-21T14:17:14.639Z,54.80
2023-01-21T14:19:38.071Z,50.93
2023-01-21T14:22:04.552Z,42.10
2023-01-21T14:24:24.954Z,38.53
2023-01-21T14:26:39.612Z,35.43
2023-01-21T14:29:09.381Z,32.00
2023-01-21T14:31:24.024Z,48.93
2023-01-21T14:33:54.846Z,46.97
2023-01-21T14:36:18.017Z,35.50
2023-01-21T14:38:26.114Z,33.60
2023-01-21T14:40:33.601Z,33.63
2023-01-21T14:42:50.288Z,16.33
2023-01-21T14:44:52.764Z,16.00
2023-01-21T14:47:18.210Z,10.03
2023-01-21T14:49:40.076Z,10.93
2023-01-21T14:51:49.263Z,6.60
2023-01-21T14:54:01.617Z,8.07
2023-01-21T14:56:06.779Z,15.57
2023-01-21T14:58:23.337Z,26.83
2023-01-21T15:00:30.509Z,74.73
2023-01-21T15:02:42.137Z,42.93
2023-01-21T15:04:54.643Z,34.27
2023-01-21T15:07:01.223Z,41.43
2023-01-21T15:09:05.700Z,37.80
2023-01-21T15:11:19.813Z,23.30
2023-01-21T15:13:34.207Z,18.20
2023-01-21T15:15:48.187Z,12.77
2023-01-21T15:17:57.836Z,10.37
2023-01-21T15:20:40.411Z,56.83
2023-01-21T15:22:46.889Z,44.93
2023-01-21T15:25:14.613Z,34.00
2023-01-21T15:27:26.024Z,23.60
2023-01-21T15:29:39.016Z,17.73
2023-01-21T15:31:44.783Z,21.80
2023-01-21T15:33:57.961Z,24.93
2023-01-21T15:36:01.367Z,20.03
2023-01-21T15:38:17.663Z,21.23
2023-01-21T15:40:33.552Z,20.33
2023-01-21T15:42:41.452Z,17.70
2023-01-21T15:45:02.151Z,17.90
2023-01-21T15:47:22.669Z,15.13
2023-01-21T15:49:44.442Z,13.97
2023-01-21T15:52:17.187Z,18.17
2023-01-21T15:54:46.641Z,31.60
2023-01-21T15:56:51.237Z,34.57
2023-01-21T15:58:59.414Z,27.50
2023-01-21T16:01:25.961Z,22.40
2023-01-21T16:03:35.304Z,19.17
2023-01-21T16:05:59.236Z,16.00
2023-01-21T16:08:11.097Z,15.40
2023-01-21T16:10:41.727Z,14.87
2023-01-21T16:13:14.600Z,11.97
2023-01-21T16:15:39.793Z,12.23
2023-01-21T16:17:56.890Z,14.17
2023-01-21T16:20:01.990Z,15.20
2023-01-21T16:22:09.699Z,24.30
2023-01-21T16:24:19.630Z,35.93
2023-01-21T16:26:31.948Z,31.37
2023-01-21T16:28:46.369Z,20.43
2023-01-21T16:30:54.642Z,29.93
2023-01-21T16:33:16.445Z,32.10
2023-01-21T16:35:18.787Z,28.30
2023-01-21T16:37:24.758Z,33.60
2023-01-21T16:39:27.011Z,26.87
2023-01-21T16:41:29.218Z,20.27
2023-01-21T16:43:34.117Z,25.83
2023-01-21T16:45:37.030Z,30.37
2023-01-21T16:47:40.257Z,28.40
2023-01-21T16:57:33.444Z,24.80
2023-01-21T16:59:41.076Z,28.20
2023-01-21T17:01:43.322Z,30.23
2023-01-21T17:03:47.774Z,46.57
2023-01-21T17:05:52.264Z,39.87
2023-01-21T17:08:01.108Z,32.60
2023-01-21T17:10:07.239Z,28.80
2023-01-21T17:12:22.007Z,40.63
2023-01-21T17:14:27.864Z,68.73
2023-01-21T17:16:34.670Z,68.60
2023-01-21T17:18:43.210Z,71.50
2023-01-21T17:20:53.306Z,62.80
2023-01-21T17:22:55.557Z,58.97
2023-01-21T17:25:24.730Z,59.00
2023-01-21T17:27:27.725Z,62.00
2023-01-21T17:29:34.265Z,62.60
2023-01-21T17:31:42.569Z,72.20
2023-01-21T17:33:45.422Z,74.33
2023-01-21T17:36:09.166Z,68.37
2023-01-21T17:38:30.368Z,61.67
2023-01-21T17:41:09.269Z,46.30
2023-01-21T17:43:25.925Z,39.93
2023-01-21T17:45:32.234Z,43.67
2023-01-21T17:47:56.050Z,43.60
2023-01-21T17:50:21.721Z,73.87
2023-01-21T17:52:24.511Z,48.23
2023-01-21T17:54:29.457Z,41.20
2023-01-21T17:56:36.517Z,80.33
2023-01-21T17:58:41.580Z,71.63
2023-01-21T18:00:45.615Z,43.93
2023-01-21T18:02:47.779Z,36.63
2023-01-21T18:04:49.905Z,41.37
2023-01-21T18:06:53.478Z,44.80
2023-01-21T18:08:57.542Z,45.03
2023-01-21T18:10:59.798Z,37.67
2023-01-21T18:13:02.474Z,38.63
2023-01-21T18:15:07.972Z,42.57
2023-01-21T18:17:18.835Z,37.67
2023-01-21T18:19:36.663Z,42.17
2023-01-21T18:21:38.634Z,39.40
2023-01-21T18:23:40.815Z,21.33
2023-01-21T18:25:44.986Z,18.40
2023-01-21T18:27:54.824Z,20.13
2023-01-21T18:29:58.220Z,65.70
2023-01-21T18:32:00.357Z,82.17
2023-01-21T18:34:02.875Z,40.53
2023-01-21T18:36:05.565Z,30.83
2023-01-21T18:38:19.568Z,28.70
2023-01-21T18:40:23.163Z,27.93
2023-01-21T18:42:25.902Z,29.80
2023-01-21T18:44:27.839Z,34.93
2023-01-21T18:46:29.969Z,44.17
2023-01-21T18:48:33.851Z,42.30
2023-01-21T18:50:36.175Z,53.10
2023-01-21T18:52:38.259Z,51.20
2023-01-21T18:54:40.845Z,62.40
2023-01-21T18:56:43.830Z,48.50
2023-01-21T18:58:45.948Z,49.27
2023-01-21T19:00:48.592Z,42.97
2023-01-21T19:02:53.798Z,41.17
2023-01-21T19:04:56.008Z,53.23
2023-01-21T19:06:58.302Z,38.50
2023-01-21T19:09:02.546Z,38.60
2023-01-21T19:11:04.928Z,34.97
2023-01-21T19:13:08.205Z,34.27
2023-01-21T19:15:21.613Z,37.10
2023-01-21T19:17:26.534Z,31.03
2023-01-21T19:19:28.563Z,41.47
2023-01-21T19:21:30.730Z,68.50
2023-01-21T19:23:32.784Z,50.40
2023-01-21T19:25:34.782Z,48.97
2023-01-21T19:27:41.159Z,99.97
2023-01-21T19:29:43.660Z,126.90
2023-01-21T19:31:45.651Z,104.83
2023-01-21T19:33:47.982Z,111.33
2023-01-21T19:35:52.797Z,98.97
2023-01-21T19:37:55.225Z,78.53
2023-01-21T19:39:57.248Z,85.23
2023-01-21T19:42:07.928Z,70.03
2023-01-21T19:44:10.549Z,75.53
2023-01-21T19:46:13.680Z,85.30
2023-01-21T19:48:18.188Z,51.43
2023-01-21T19:50:22.973Z,38.20
2023-01-21T19:52:24.929Z,25.03
2023-01-21T19:54:27.207Z,29.10
2023-01-21T19:56:29.328Z,40.80
2023-01-21T19:58:32.832Z,53.27
2023-01-21T20:00:36.298Z,48.87
2023-01-21T20:02:38.368Z,44.50
2023-01-21T20:04:40.627Z,66.63
2023-01-21T20:06:44.830Z,54.27
2023-01-21T20:08:47.674Z,50.97
2023-01-21T20:10:50.131Z,94.87
2023-01-21T20:12:53.146Z,67.73
2023-01-21T20:14:55.162Z,97.10
2023-01-21T20:16:57.330Z,51.67
2023-01-21T20:19:02.144Z,31.77
2023-01-21T20:21:07.282Z,16.60
2023-01-21T20:23:15.041Z,14.20
2023-01-21T20:25:21.485Z,14.27
2023-01-21T20:27:23.446Z,16.50
2023-01-21T20:29:27.199Z,14.97
2023-01-21T20:31:30.403Z,15.47
2023-01-21T20:33:33.080Z,19.03
2023-01-21T20:35:35.068Z,14.93
2023-01-21T20:37:37.388Z,16.57
2023-01-21T20:39:39.493Z,15.97
2023-01-21T20:41:43.485Z,24.77
2023-01-21T20:43:46.090Z,23.93
2023-01-21T20:45:49.549Z,24.80
2023-01-21T20:47:54.947Z,27.67
2023-01-21T20:49:59.577Z,24.63
2023-01-21T20:52:01.587Z,19.73
2023-01-21T20:54:04.440Z,17.60
2023-01-21T20:56:18.065Z,16.53
2023-01-21T20:58:22.338Z,15.27
2023-01-21T21:00:31.465Z,14.60
2023-01-21T21:02:33.699Z,18.40
2023-01-21T21:04:35.688Z,23.77
2023-01-21T21:06:37.873Z,33.37
2023-01-21T21:08:40.394Z,32.23
2023-01-21T21:10:43.355Z,26.43
2023-01-21T21:12:45.699Z,27.73
2023-01-21T21:14:47.941Z,22.27
2023-01-21T21:16:50.334Z,19.07
2023-01-21T21:18:52.628Z,17.23
2023-01-21T21:20:54.906Z,21.10
2023-01-21T21:22:56.920Z,18.23
2023-01-21T21:24:58.934Z,17.00
2023-01-21T21:27:01.369Z,16.73
2023-01-21T21:29:03.664Z,15.10
2023-01-21T21:31:06.049Z,14.33
2023-01-21T21:33:15.479Z,15.90
2023-01-21T21:35:29.862Z,14.93
2023-01-21T21:37:31.999Z,15.53
2023-01-21T21:39:34.257Z,14.90
2023-01-21T21:41:55.006Z,17.07
2023-01-21T21:43:57.021Z,20.40
2023-01-21T21:46:26.864Z,24.53
2023-01-21T21:48:38.840Z,28.47
2023-01-21T21:50:41.119Z,42.43
2023-01-21T21:52:43.201Z,121.20
2023-01-21T21:54:45.695Z,88.40
2023-01-21T21:56:50.959Z,84.17
2023-01-21T21:58:53.198Z,82.80
2023-01-21T22:00:55.678Z,77.40
2023-01-21T22:03:02.395Z,84.17
2023-01-21T22:05:07.631Z,66.27
2023-01-21T22:07:09.926Z,90.93
2023-01-21T22:09:13.212Z,91.40
2023-01-21T22:11:17.924Z,75.13
2023-01-21T22:13:20.366Z,80.07
2023-01-21T22:15:22.427Z,68.93
2023-01-21T22:17:24.525Z,50.90
2023-01-21T22:19:29.565Z,107.33
2023-01-21T22:21:34.159Z,127.37
2023-01-21T22:23:39.396Z,153.83
2023-01-21T22:25:41.555Z,150.37
2023-01-21T22:27:44.658Z,110.60
2023-01-21T22:29:46.933Z,96.50
2023-01-21T22:31:49.061Z,100.37
2023-01-21T22:33:51.932Z,89.23
2023-01-21T22:35:56.735Z,87.10
2023-01-21T22:37:58.820Z,62.63
2023-01-21T22:40:00.792Z,36.37
2023-01-21T22:42:05.040Z,54.07
2023-01-21T22:44:07.171Z,43.37
2023-01-21T22:46:12.309Z,46.40
2023-01-21T22:48:14.781Z,20.27
2023-01-21T22:50:17.343Z,37.10
2023-01-21T22:52:19.363Z,47.60
2023-01-21T22:54:21.514Z,57.80
2023-01-21T22:56:39.915Z,63.57
2023-01-21T22:58:47.621Z,58.00
2023-01-21T23:00:50.046Z,46.20
2023-01-21T23:02:52.016Z,46.30
2023-01-21T23:04:54.027Z,40.73
2023-01-21T23:06:56.487Z,50.13
2023-01-21T23:08:58.511Z,32.17
2023-01-21T23:11:12.186Z,14.40
2023-01-21T23:13:15.352Z,15.80
2023-01-21T23:15:17.461Z,31.67
2023-01-21T23:17:19.533Z,28.90
2023-01-21T23:19:21.606Z,26.40
2023-01-21T23:21:23.738Z,27.23
2023-01-21T23:31:26.195Z,51.00
2023-01-21T23:33:28.372Z,68.43
2023-01-21T23:35:31.512Z,46.33
2023-01-21T23:37:33.937Z,32.03
2023-01-21T23:39:36.103Z,22.07
2023-01-21T23:41:38.318Z,21.53
2023-01-21T23:43:41.313Z,26.27
2023-01-21T23:45:43.391Z,15.27
2023-01-21T23:47:47.503Z,27.77
2023-01-21T23:49:49.771Z,252.93
2023-01-21T23:51:52.012Z,265.87
2023-01-21T23:53:54.081Z,200.70
2023-01-21T23:56:09.415Z,154.90
2023-01-21T23:58:11.477Z,89.70
